Royse City's Hourly Summary for Saturday, March 18, 2017
Hour Temp
(f)
RH
(%)
Solar Rad.
(MJ/m2)
Rainfall
(in)
Wind
(mph)
3/18/2017 12:00 AM 69 69 0 0 0.2
3/18/2017 1:00 AM 69 67 0 0 2.46
3/18/2017 2:00 AM 67 71 0 0 2.37
3/18/2017 3:00 AM 65 77 0 0 1.22
3/18/2017 4:00 AM 64 83 0 0 0.87
3/18/2017 5:00 AM 63 86 0 0 0.17
3/18/2017 6:00 AM 62 91 0 0 0.11
3/18/2017 7:00 AM 61 93 0 0 0.12
3/18/2017 8:00 AM 61 95 0.01 0 0.41
3/18/2017 9:00 AM 63 91 0.16 0 1.13
3/18/2017 10:00 AM 64 87 0.39 0 2.03
3/18/2017 11:00 AM 66 83 0.54 0 2.64
3/18/2017 12:00 PM 67 78 0.99 0 2.58
3/18/2017 1:00 PM 69 73 0.92 0 1.13
3/18/2017 2:00 PM 72 68 1.75 0 1.96
3/18/2017 3:00 PM 74 62 2.44 0 2.43
3/18/2017 4:00 PM 75 62 2.04 0 3.26
3/18/2017 5:00 PM 76 59 1.76 0 3.49
3/18/2017 6:00 PM 76 60 1.2 0 3.26
3/18/2017 7:00 PM 76 60 0.53 0 2.94
3/18/2017 8:00 PM 73 63 0.04 0 0.86
3/18/2017 9:00 PM 69 73 0 0 0.11
3/18/2017 10:00 PM 66 83 0 0 0.06
3/18/2017 11:00 PM 64 86 0 0 0.09
Data Summary 67 75 12.77 0.00 1.50